Hovedside
METAR-TAF:

METAR-TAF

Lufthavner :

Wake Island, USA

breddegrad: 19-17N, lengdegrad: 166-39E, høyde over havet: 4 m

Gjeldene værobservasjon

Denne rapporten ble laget for 15 minutter siden, klokken 18:58 UTC
Vind 17 kt fra Øst med vindkast opp mot 25 kt
Temperatur 26°C
Luftfuktighet 79%
Trykk 1018 hPa
Sikt 10 km eller mer
Få skyer i en høyde av 2100 ft

METAR: PWAK 121858Z AUTO 08017G25KT 9999 FEW021 26/22 A3006 RMK AO2 SLPNO T02580221 $

Tid: 07:13 (19:13 UTC)

Varsel

Denne rapporten ble laget for 5 timer og 13 minutter siden, klokken 14:00 UTC
Varsel gyldig fra 12. klokken 14 UTC til 13. klokken 20 UTC
Vind 20 kt fra Øst med vindkast opp mot 30 kt
Sikt: 8000 m
Få skyer i en høyde av 2700 ft
dis

TAF: PWAK 121400Z 1214/1320 08020G30KT 8000 BR FEW027 510003 QNH3004INS TX29/1300Z TN25/1220Z FOR MIL USE ONLY

Værobservasjoner og værvarsel for over 4000 flyplasser (METAR- og TAF-rapporter).

Tilgjengelige stasjoner er representert av de røde og gule prikkene på kartet.

Hold musepekeren over prikken for å se navnet på stasjonen.

Klikk så for å se værobservasjoner og -varsler.

For å forandre kartet kan du klikke på den grønne knappen med svart kryss for å zoome inn, på den grønne knappen med strek for å zoome ut, eller på de grønne pilene for å se tilstøtende kart.


METAR-TAF: